sensor_id;sensor_type;location;lat;lon;timestamp;pressure;altitude;pressure_sealevel;temperature;humidity
54806;BME280;62866;55.776;37.496;2023-02-22T00:00:42;98553.03;;;-13.49;88.94
54806;BME280;62866;55.776;37.496;2023-02-22T00:05:37;98578.72;;;-13.49;88.80
54806;BME280;62866;55.776;37.496;2023-02-22T00:08:06;98577.06;;;-13.50;89.35
54806;BME280;62866;55.776;37.496;2023-02-22T00:10:35;98580.09;;;-13.41;89.40
54806;BME280;62866;55.776;37.496;2023-02-22T00:13:04;98574.97;;;-13.41;89.54
54806;BME280;62866;55.776;37.496;2023-02-22T00:15:30;98588.38;;;-13.35;89.64
54806;BME280;62866;55.776;37.496;2023-02-22T00:17:56;98578.91;;;-13.53;89.05
54806;BME280;62866;55.776;37.496;2023-02-22T00:20:22;98589.34;;;-13.56;89.39
54806;BME280;62866;55.776;37.496;2023-02-22T00:22:49;98597.34;;;-13.43;89.22
54806;BME280;62866;55.776;37.496;2023-02-22T00:25:21;98601.84;;;-13.49;89.43
54806;BME280;62866;55.776;37.496;2023-02-22T00:27:48;98603.38;;;-13.45;89.30
54806;BME280;62866;55.776;37.496;2023-02-22T00:30:24;98559.06;;;-13.68;89.17
54806;BME280;62866;55.776;37.496;2023-02-22T00:32:51;98611.44;;;-13.33;89.27
54806;BME280;62866;55.776;37.496;2023-02-22T00:35:19;98624.38;;;-13.35;88.94
54806;BME280;62866;55.776;37.496;2023-02-22T00:37:47;98621.78;;;-13.35;89.21
54806;BME280;62866;55.776;37.496;2023-02-22T00:40:19;98636.25;;;-13.32;89.02
54806;BME280;62866;55.776;37.496;2023-02-22T00:42:45;98620.13;;;-13.36;89.61
54806;BME280;62866;55.776;37.496;2023-02-22T00:45:12;98630.97;;;-13.29;89.22
54806;BME280;62866;55.776;37.496;2023-02-22T00:47:38;98630.00;;;-13.27;89.01
54806;BME280;62866;55.776;37.496;2023-02-22T00:50:04;98629.28;;;-13.30;88.94
54806;BME280;62866;55.776;37.496;2023-02-22T00:52:29;98634.59;;;-13.33;88.63
54806;BME280;62866;55.776;37.496;2023-02-22T00:54:56;98639.72;;;-13.33;88.49
54806;BME280;62866;55.776;37.496;2023-02-22T00:57:23;98639.38;;;-13.45;88.29
54806;BME280;62866;55.776;37.496;2023-02-22T00:59:49;98642.22;;;-13.51;88.38
54806;BME280;62866;55.776;37.496;2023-02-22T01:02:16;98646.41;;;-13.48;88.52
54806;BME280;62866;55.776;37.496;2023-02-22T01:04:42;98644.00;;;-13.53;88.43
54806;BME280;62866;55.776;37.496;2023-02-22T01:07:07;98645.47;;;-13.66;88.45
54806;BME280;62866;55.776;37.496;2023-02-22T01:09:33;98643.56;;;-13.62;88.63
54806;BME280;62866;55.776;37.496;2023-02-22T01:11:59;98645.41;;;-13.64;88.58
54806;BME280;62866;55.776;37.496;2023-02-22T01:14:27;98656.44;;;-13.62;88.28
54806;BME280;62866;55.776;37.496;2023-02-22T01:16:53;98643.72;;;-13.65;88.37
54806;BME280;62866;55.776;37.496;2023-02-22T01:19:21;98653.50;;;-13.55;88.34
54806;BME280;62866;55.776;37.496;2023-02-22T01:21:47;98653.41;;;-13.52;88.35
54806;BME280;62866;55.776;37.496;2023-02-22T01:24:14;98631.47;;;-13.79;88.10
54806;BME280;62866;55.776;37.496;2023-02-22T01:26:49;98655.81;;;-13.88;87.96
54806;BME280;62866;55.776;37.496;2023-02-22T01:29:16;98669.50;;;-13.87;88.08
54806;BME280;62866;55.776;37.496;2023-02-22T01:31:43;98667.81;;;-13.88;88.30
54806;BME280;62866;55.776;37.496;2023-02-22T01:34:16;98656.13;;;-13.95;88.42
54806;BME280;62866;55.776;37.496;2023-02-22T01:36:41;98661.16;;;-13.92;88.74
54806;BME280;62866;55.776;37.496;2023-02-22T01:39:07;98668.25;;;-13.78;88.83
54806;BME280;62866;55.776;37.496;2023-02-22T01:41:35;98685.91;;;-13.71;88.53
54806;BME280;62866;55.776;37.496;2023-02-22T01:46:45;98700.44;;;-13.70;88.48
54806;BME280;62866;55.776;37.496;2023-02-22T01:49:12;98701.44;;;-13.72;88.37
54806;BME280;62866;55.776;37.496;2023-02-22T01:51:42;98683.16;;;-13.87;88.27
54806;BME280;62866;55.776;37.496;2023-02-22T01:54:13;98696.41;;;-13.75;88.03
54806;BME280;62866;55.776;37.496;2023-02-22T01:57:06;98701.03;;;-13.84;88.46
54806;BME280;62866;55.776;37.496;2023-02-22T01:59:33;98716.72;;;-13.90;88.89
54806;BME280;62866;55.776;37.496;2023-02-22T02:02:00;98710.13;;;-13.97;89.08
54806;BME280;62866;55.776;37.496;2023-02-22T02:04:26;98716.88;;;-13.94;88.48
54806;BME280;62866;55.776;37.496;2023-02-22T02:06:57;98681.84;;;-14.15;88.54
54806;BME280;62866;55.776;37.496;2023-02-22T02:09:37;98722.22;;;-13.99;88.44
54806;BME280;62866;55.776;37.496;2023-02-22T02:12:06;98699.91;;;-14.18;88.58
54806;BME280;62866;55.776;37.496;2023-02-22T02:14:32;98714.16;;;-14.11;88.18
54806;BME280;62866;55.776;37.496;2023-02-22T02:17:05;98719.72;;;-14.22;88.11
54806;BME280;62866;55.776;37.496;2023-02-22T02:20:04;98725.59;;;-14.18;88.25
54806;BME280;62866;55.776;37.496;2023-02-22T02:28:26;98732.53;;;-14.41;87.91
54806;BME280;62866;55.776;37.496;2023-02-22T02:31:16;98750.44;;;-14.39;87.84
54806;BME280;62866;55.776;37.496;2023-02-22T02:33:59;98757.06;;;-14.35;88.18
54806;BME280;62866;55.776;37.496;2023-02-22T02:36:41;98751.03;;;-14.34;87.77
54806;BME280;62866;55.776;37.496;2023-02-22T02:39:33;98759.63;;;-14.35;87.76
54806;BME280;62866;55.776;37.496;2023-02-22T02:42:03;98763.97;;;-14.37;87.61
54806;BME280;62866;55.776;37.496;2023-02-22T02:44:35;98760.69;;;-14.39;87.58
54806;BME280;62866;55.776;37.496;2023-02-22T02:47:11;98764.22;;;-14.42;87.36
54806;BME280;62866;55.776;37.496;2023-02-22T02:49:47;98760.84;;;-14.44;87.19
54806;BME280;62866;55.776;37.496;2023-02-22T02:52:14;98755.25;;;-14.53;86.85
54806;BME280;62866;55.776;37.496;2023-02-22T02:54:42;98762.88;;;-14.52;87.20
54806;BME280;62866;55.776;37.496;2023-02-22T02:57:10;98764.84;;;-14.58;87.14
54806;BME280;62866;55.776;37.496;2023-02-22T02:59:37;98780.25;;;-14.58;86.93
54806;BME280;62866;55.776;37.496;2023-02-22T03:10:44;98791.84;;;-14.72;87.20
54806;BME280;62866;55.776;37.496;2023-02-22T03:24:08;98798.28;;;-14.83;87.14
54806;BME280;62866;55.776;37.496;2023-02-22T03:26:44;98806.13;;;-14.88;87.42
54806;BME280;62866;55.776;37.496;2023-02-22T03:29:13;98812.84;;;-14.84;87.46
54806;BME280;62866;55.776;37.496;2023-02-22T03:31:47;98806.78;;;-14.81;87.39
54806;BME280;62866;55.776;37.496;2023-02-22T03:34:39;98814.47;;;-14.81;87.29
54806;BME280;62866;55.776;37.496;2023-02-22T03:37:13;98818.00;;;-14.85;87.29
54806;BME280;62866;55.776;37.496;2023-02-22T03:39:42;98830.00;;;-14.86;86.95
54806;BME280;62866;55.776;37.496;2023-02-22T03:42:13;98824.88;;;-14.86;87.12
54806;BME280;62866;55.776;37.496;2023-02-22T03:44:42;98829.53;;;-14.97;87.58
54806;BME280;62866;55.776;37.496;2023-02-22T03:47:13;98829.09;;;-15.08;87.41
54806;BME280;62866;55.776;37.496;2023-02-22T03:49:57;98828.47;;;-15.15;87.29
54806;BME280;62866;55.776;37.496;2023-02-22T03:52:24;98824.56;;;-15.25;87.35
54806;BME280;62866;55.776;37.496;2023-02-22T03:54:51;98841.09;;;-15.09;87.12
54806;BME280;62866;55.776;37.496;2023-02-22T03:57:34;98847.66;;;-15.02;87.24
54806;BME280;62866;55.776;37.496;2023-02-22T04:00:04;98847.09;;;-15.10;87.24
54806;BME280;62866;55.776;37.496;2023-02-22T04:02:33;98843.88;;;-15.15;87.46
54806;BME280;62866;55.776;37.496;2023-02-22T04:04:59;98852.53;;;-15.19;87.17
54806;BME280;62866;55.776;37.496;2023-02-22T04:07:24;98857.50;;;-15.14;87.43
54806;BME280;62866;55.776;37.496;2023-02-22T04:09:50;98856.59;;;-15.13;87.45
54806;BME280;62866;55.776;37.496;2023-02-22T04:12:16;98860.19;;;-15.17;87.56
54806;BME280;62866;55.776;37.496;2023-02-22T04:14:42;98852.28;;;-15.11;87.50
54806;BME280;62866;55.776;37.496;2023-02-22T04:17:07;98872.72;;;-15.10;87.53
54806;BME280;62866;55.776;37.496;2023-02-22T04:19:34;98865.44;;;-15.22;87.42
54806;BME280;62866;55.776;37.496;2023-02-22T04:21:59;98867.28;;;-15.25;87.25
54806;BME280;62866;55.776;37.496;2023-02-22T04:24:25;98878.34;;;-15.23;87.30
54806;BME280;62866;55.776;37.496;2023-02-22T04:26:50;98880.78;;;-15.20;87.20
54806;BME280;62866;55.776;37.496;2023-02-22T04:29:16;98886.78;;;-15.21;87.42
54806;BME280;62866;55.776;37.496;2023-02-22T04:31:42;98890.25;;;-15.22;87.64
54806;BME280;62866;55.776;37.496;2023-02-22T04:34:07;98894.22;;;-15.14;87.29
54806;BME280;62866;55.776;37.496;2023-02-22T04:36:33;98889.22;;;-15.17;87.56
54806;BME280;62866;55.776;37.496;2023-02-22T04:38:59;98897.94;;;-15.22;87.46
54806;BME280;62866;55.776;37.496;2023-02-22T04:41:24;98897.00;;;-15.20;87.57
54806;BME280;62866;55.776;37.496;2023-02-22T04:43:50;98905.69;;;-15.24;87.26
54806;BME280;62866;55.776;37.496;2023-02-22T04:46:16;98908.31;;;-15.25;87.78
54806;BME280;62866;55.776;37.496;2023-02-22T04:48:42;98908.84;;;-15.16;87.60
54806;BME280;62866;55.776;37.496;2023-02-22T04:51:08;98890.31;;;-15.24;87.53
54806;BME280;62866;55.776;37.496;2023-02-22T04:53:35;98904.94;;;-15.27;87.04
54806;BME280;62866;55.776;37.496;2023-02-22T04:56:01;98904.16;;;-15.29;86.93
54806;BME280;62866;55.776;37.496;2023-02-22T04:58:26;98911.41;;;-15.42;86.75
54806;BME280;62866;55.776;37.496;2023-02-22T05:00:52;98901.25;;;-15.45;87.05
54806;BME280;62866;55.776;37.496;2023-02-22T05:03:18;98921.16;;;-15.27;86.93
54806;BME280;62866;55.776;37.496;2023-02-22T05:05:43;98920.94;;;-15.21;86.81
54806;BME280;62866;55.776;37.496;2023-02-22T05:08:09;98922.41;;;-15.14;87.13
54806;BME280;62866;55.776;37.496;2023-02-22T05:10:35;98920.50;;;-15.07;86.84
54806;BME280;62866;55.776;37.496;2023-02-22T05:13:00;98916.63;;;-15.19;86.67
54806;BME280;62866;55.776;37.496;2023-02-22T05:15:26;98922.41;;;-15.14;86.96
54806;BME280;62866;55.776;37.496;2023-02-22T05:17:52;98926.31;;;-15.02;86.37
54806;BME280;62866;55.776;37.496;2023-02-22T05:20:25;98929.41;;;-14.92;86.81
54806;BME280;62866;55.776;37.496;2023-02-22T05:22:58;98944.44;;;-14.82;86.95
54806;BME280;62866;55.776;37.496;2023-02-22T05:25:25;98933.06;;;-14.75;86.28
54806;BME280;62866;55.776;37.496;2023-02-22T05:27:57;98943.03;;;-14.66;85.99
54806;BME280;62866;55.776;37.496;2023-02-22T05:30:25;98921.09;;;-14.74;85.67
54806;BME280;62866;55.776;37.496;2023-02-22T05:32:51;98952.59;;;-14.47;85.93
54806;BME280;62866;55.776;37.496;2023-02-22T05:35:18;98947.03;;;-14.58;85.77
54806;BME280;62866;55.776;37.496;2023-02-22T05:37:43;98962.66;;;-14.65;85.90
54806;BME280;62866;55.776;37.496;2023-02-22T05:40:09;98954.78;;;-14.60;86.27
54806;BME280;62866;55.776;37.496;2023-02-22T05:42:35;98959.97;;;-14.38;86.50
54806;BME280;62866;55.776;37.496;2023-02-22T05:45:01;98957.19;;;-14.32;86.23
54806;BME280;62866;55.776;37.496;2023-02-22T05:47:26;98956.16;;;-14.28;86.16
54806;BME280;62866;55.776;37.496;2023-02-22T05:49:52;98959.63;;;-14.29;85.93
54806;BME280;62866;55.776;37.496;2023-02-22T05:52:17;98962.38;;;-14.34;85.44
54806;BME280;62866;55.776;37.496;2023-02-22T05:54:43;98966.34;;;-14.25;85.72
54806;BME280;62866;55.776;37.496;2023-02-22T05:57:08;98972.03;;;-14.17;85.37
54806;BME280;62866;55.776;37.496;2023-02-22T05:59:34;98969.97;;;-14.07;84.92
54806;BME280;62866;55.776;37.496;2023-02-22T06:01:59;98982.53;;;-14.00;84.95
54806;BME280;62866;55.776;37.496;2023-02-22T06:04:25;98976.03;;;-13.87;85.00
54806;BME280;62866;55.776;37.496;2023-02-22T06:06:52;98977.81;;;-13.89;84.87
54806;BME280;62866;55.776;37.496;2023-02-22T06:09:17;98982.56;;;-13.78;84.89
54806;BME280;62866;55.776;37.496;2023-02-22T06:11:43;98983.84;;;-13.66;85.05
54806;BME280;62866;55.776;37.496;2023-02-22T06:14:08;98982.66;;;-13.58;85.10
54806;BME280;62866;55.776;37.496;2023-02-22T06:16:34;98984.91;;;-13.50;84.77
54806;BME280;62866;55.776;37.496;2023-02-22T06:18:59;98987.44;;;-13.49;84.28
54806;BME280;62866;55.776;37.496;2023-02-22T06:21:26;98991.34;;;-13.62;84.13
54806;BME280;62866;55.776;37.496;2023-02-22T06:23:52;98991.34;;;-13.62;83.91
54806;BME280;62866;55.776;37.496;2023-02-22T06:26:18;98991.50;;;-13.43;83.27
54806;BME280;62866;55.776;37.496;2023-02-22T06:28:45;99007.41;;;-13.33;83.36
54806;BME280;62866;55.776;37.496;2023-02-22T06:31:10;99003.69;;;-13.26;83.80
54806;BME280;62866;55.776;37.496;2023-02-22T06:33:36;99008.41;;;-13.37;83.84
54806;BME280;62866;55.776;37.496;2023-02-22T06:36:02;99003.94;;;-13.32;84.03
54806;BME280;62866;55.776;37.496;2023-02-22T06:38:28;99007.34;;;-13.32;83.72
54806;BME280;62866;55.776;37.496;2023-02-22T06:40:53;99001.97;;;-13.48;83.32
54806;BME280;62866;55.776;37.496;2023-02-22T06:43:20;99009.59;;;-13.46;83.31
54806;BME280;62866;55.776;37.496;2023-02-22T06:45:46;99002.50;;;-13.39;83.44
54806;BME280;62866;55.776;37.496;2023-02-22T06:48:12;99006.38;;;-13.51;83.80
54806;BME280;62866;55.776;37.496;2023-02-22T06:50:38;99013.78;;;-13.22;84.24
54806;BME280;62866;55.776;37.496;2023-02-22T06:53:04;99008.63;;;-13.22;84.11
54806;BME280;62866;55.776;37.496;2023-02-22T06:55:31;99004.47;;;-13.04;84.08
54806;BME280;62866;55.776;37.496;2023-02-22T06:57:57;99009.91;;;-12.90;84.63
54806;BME280;62866;55.776;37.496;2023-02-22T07:00:25;99015.78;;;-12.66;84.80
54806;BME280;62866;55.776;37.496;2023-02-22T07:02:51;99011.47;;;-12.45;84.38
54806;BME280;62866;55.776;37.496;2023-02-22T07:05:19;99003.13;;;-12.50;83.97
54806;BME280;62866;55.776;37.496;2023-02-22T07:07:46;99015.22;;;-12.32;84.01
54806;BME280;62866;55.776;37.496;2023-02-22T07:10:19;99018.34;;;-12.25;84.30
54806;BME280;62866;55.776;37.496;2023-02-22T07:12:45;99025.03;;;-12.21;84.29
54806;BME280;62866;55.776;37.496;2023-02-22T07:15:13;99031.75;;;-12.17;84.30
54806;BME280;62866;55.776;37.496;2023-02-22T07:17:39;99030.44;;;-12.07;84.13
54806;BME280;62866;55.776;37.496;2023-02-22T07:20:06;99028.38;;;-12.19;84.07
54806;BME280;62866;55.776;37.496;2023-02-22T07:22:32;99025.22;;;-12.06;83.35
54806;BME280;62866;55.776;37.496;2023-02-22T07:24:57;99015.28;;;-11.95;83.00
54806;BME280;62866;55.776;37.496;2023-02-22T07:27:24;99045.22;;;-11.73;83.30
54806;BME280;62866;55.776;37.496;2023-02-22T07:29:49;99036.03;;;-11.60;83.07
54806;BME280;62866;55.776;37.496;2023-02-22T07:32:15;99028.50;;;-11.65;82.52
54806;BME280;62866;55.776;37.496;2023-02-22T07:34:40;99040.53;;;-11.82;82.40
54806;BME280;62866;55.776;37.496;2023-02-22T07:37:07;99044.50;;;-11.75;82.58
54806;BME280;62866;55.776;37.496;2023-02-22T07:39:33;99048.31;;;-11.65;82.94
54806;BME280;62866;55.776;37.496;2023-02-22T07:41:59;99053.72;;;-11.53;82.90
54806;BME280;62866;55.776;37.496;2023-02-22T07:44:25;99047.47;;;-11.47;82.59
54806;BME280;62866;55.776;37.496;2023-02-22T07:46:50;99076.13;;;-11.34;82.37
54806;BME280;62866;55.776;37.496;2023-02-22T07:49:16;99066.75;;;-11.37;82.34
54806;BME280;62866;55.776;37.496;2023-02-22T07:51:42;99072.69;;;-11.16;82.32
54806;BME280;62866;55.776;37.496;2023-02-22T07:54:07;99073.41;;;-10.77;81.98
54806;BME280;62866;55.776;37.496;2023-02-22T07:56:33;99075.59;;;-10.69;81.63
54806;BME280;62866;55.776;37.496;2023-02-22T07:58:58;99074.75;;;-10.69;81.90
54806;BME280;62866;55.776;37.496;2023-02-22T08:01:25;99070.63;;;-10.55;82.30
54806;BME280;62866;55.776;37.496;2023-02-22T08:03:51;99077.00;;;-10.27;82.67
54806;BME280;62866;55.776;37.496;2023-02-22T08:06:18;99078.03;;;-10.14;82.46
54806;BME280;62866;55.776;37.496;2023-02-22T08:08:45;99080.25;;;-9.09;81.29
54806;BME280;62866;55.776;37.496;2023-02-22T08:11:11;99066.63;;;-7.49;79.07
54806;BME280;62866;55.776;37.496;2023-02-22T08:13:37;99074.13;;;-7.45;79.29
54806;BME280;62866;55.776;37.496;2023-02-22T08:16:03;99063.38;;;-6.44;78.90
54806;BME280;62866;55.776;37.496;2023-02-22T08:18:29;99073.59;;;-5.89;78.25
54806;BME280;62866;55.776;37.496;2023-02-22T08:20:55;99066.25;;;-6.22;79.14
54806;BME280;62866;55.776;37.496;2023-02-22T08:23:23;99070.56;;;-6.47;79.36
54806;BME280;62866;55.776;37.496;2023-02-22T08:25:49;99074.13;;;-6.90;80.14
54806;BME280;62866;55.776;37.496;2023-02-22T08:28:18;99078.03;;;-6.56;81.01
54806;BME280;62866;55.776;37.496;2023-02-22T08:30:45;99082.59;;;-6.20;82.32
54806;BME280;62866;55.776;37.496;2023-02-22T08:33:13;99083.09;;;-5.26;81.70
54806;BME280;62866;55.776;37.496;2023-02-22T08:35:41;99085.13;;;-5.55;81.46
54806;BME280;62866;55.776;37.496;2023-02-22T08:38:13;99085.59;;;-4.75;80.47
54806;BME280;62866;55.776;37.496;2023-02-22T08:40:41;99083.09;;;-3.37;79.35
54806;BME280;62866;55.776;37.496;2023-02-22T08:43:07;99083.56;;;-2.12;79.19
54806;BME280;62866;55.776;37.496;2023-02-22T08:45:32;99091.97;;;-1.77;76.09
54806;BME280;62866;55.776;37.496;2023-02-22T08:47:58;99085.34;;;-1.50;72.34
54806;BME280;62866;55.776;37.496;2023-02-22T08:50:29;99087.56;;;-2.29;74.27
54806;BME280;62866;55.776;37.496;2023-02-22T08:52:58;99093.00;;;-2.64;76.59
54806;BME280;62866;55.776;37.496;2023-02-22T08:55:27;99102.47;;;-1.26;75.05
54806;BME280;62866;55.776;37.496;2023-02-22T08:57:53;99093.63;;;-0.45;74.65
54806;BME280;62866;55.776;37.496;2023-02-22T09:00:20;99090.44;;;0.29;75.16
54806;BME280;62866;55.776;37.496;2023-02-22T09:02:48;99097.38;;;0.20;73.31
54806;BME280;62866;55.776;37.496;2023-02-22T09:05:14;99089.78;;;0.08;70.47
54806;BME280;62866;55.776;37.496;2023-02-22T09:07:41;99098.19;;;-0.08;69.47
54806;BME280;62866;55.776;37.496;2023-02-22T09:10:11;99106.22;;;-0.88;65.93
54806;BME280;62866;55.776;37.496;2023-02-22T09:12:40;99107.28;;;-0.51;70.83
54806;BME280;62866;55.776;37.496;2023-02-22T09:15:05;99103.81;;;-0.42;69.63
54806;BME280;62866;55.776;37.496;2023-02-22T09:17:31;99110.06;;;-0.52;66.95
54806;BME280;62866;55.776;37.496;2023-02-22T09:19:57;99108.69;;;-0.37;68.50
54806;BME280;62866;55.776;37.496;2023-02-22T09:22:22;99102.78;;;-0.20;67.03
54806;BME280;62866;55.776;37.496;2023-02-22T09:24:48;99114.09;;;-0.88;67.67
54806;BME280;62866;55.776;37.496;2023-02-22T09:27:15;99110.91;;;-1.22;64.45
54806;BME280;62866;55.776;37.496;2023-02-22T09:29:41;99112.78;;;-1.96;65.40
54806;BME280;62866;55.776;37.496;2023-02-22T09:32:06;99095.31;;;-3.15;66.13
54806;BME280;62866;55.776;37.496;2023-02-22T09:34:32;99122.31;;;-3.83;68.12
54806;BME280;62866;55.776;37.496;2023-02-22T09:37:00;99125.25;;;-4.46;68.82
54806;BME280;62866;55.776;37.496;2023-02-22T09:39:25;99138.47;;;-5.48;69.77
54806;BME280;62866;55.776;37.496;2023-02-22T09:45:05;99152.38;;;-6.94;70.49
54806;BME280;62866;55.776;37.496;2023-02-22T09:47:54;99149.31;;;-7.57;72.30
54806;BME280;62866;55.776;37.496;2023-02-22T09:50:24;99150.31;;;-7.74;73.11
54806;BME280;62866;55.776;37.496;2023-02-22T09:55:41;99155.41;;;-7.73;73.93
54806;BME280;62866;55.776;37.496;2023-02-22T09:58:25;99151.00;;;-7.42;74.05
54806;BME280;62866;55.776;37.496;2023-02-22T10:00:57;99147.63;;;-7.44;73.64
54806;BME280;62866;55.776;37.496;2023-02-22T10:03:31;99157.09;;;-7.57;74.26
54806;BME280;62866;55.776;37.496;2023-02-22T10:06:09;99152.16;;;-7.76;74.28
54806;BME280;62866;55.776;37.496;2023-02-22T10:08:35;99148.41;;;-7.86;74.85
54806;BME280;62866;55.776;37.496;2023-02-22T10:22:40;99162.72;;;-7.79;73.55
54806;BME280;62866;55.776;37.496;2023-02-22T10:25:21;99137.28;;;-8.18;74.31
54806;BME280;62866;55.776;37.496;2023-02-22T10:28:08;99149.09;;;-8.13;74.81
54806;BME280;62866;55.776;37.496;2023-02-22T10:30:42;99163.06;;;-8.15;74.21
54806;BME280;62866;55.776;37.496;2023-02-22T10:33:32;99149.19;;;-8.14;74.87
54806;BME280;62866;55.776;37.496;2023-02-22T10:35:59;99141.75;;;-8.20;74.22
54806;BME280;62866;55.776;37.496;2023-02-22T10:38:36;99158.28;;;-8.07;74.66
54806;BME280;62866;55.776;37.496;2023-02-22T10:43:39;99152.09;;;-8.34;75.46
54806;BME280;62866;55.776;37.496;2023-02-22T10:46:06;99168.56;;;-8.51;75.56
54806;BME280;62866;55.776;37.496;2023-02-22T10:48:36;99164.59;;;-8.27;76.68
54806;BME280;62866;55.776;37.496;2023-02-22T10:51:05;99158.63;;;-8.13;77.00
54806;BME280;62866;55.776;37.496;2023-02-22T10:53:33;99171.44;;;-8.26;76.16
54806;BME280;62866;55.776;37.496;2023-02-22T10:56:05;99180.69;;;-8.36;74.97
54806;BME280;62866;55.776;37.496;2023-02-22T10:58:42;99174.00;;;-8.40;75.11
54806;BME280;62866;55.776;37.496;2023-02-22T11:06:26;99178.88;;;-8.50;74.90
54806;BME280;62866;55.776;37.496;2023-02-22T11:09:03;99189.41;;;-8.37;75.10
54806;BME280;62866;55.776;37.496;2023-02-22T11:11:29;99184.81;;;-8.18;75.45
54806;BME280;62866;55.776;37.496;2023-02-22T11:13:55;99183.66;;;-8.28;75.61
54806;BME280;62866;55.776;37.496;2023-02-22T11:21:29;99179.41;;;-8.29;76.43
54806;BME280;62866;55.776;37.496;2023-02-22T11:24:05;99173.97;;;-8.24;76.25
54806;BME280;62866;55.776;37.496;2023-02-22T11:26:42;99187.53;;;-7.89;76.63
54806;BME280;62866;55.776;37.496;2023-02-22T11:29:17;99168.56;;;-8.06;77.16
54806;BME280;62866;55.776;37.496;2023-02-22T11:31:45;99196.91;;;-7.87;77.21
54806;BME280;62866;55.776;37.496;2023-02-22T11:36:52;99187.03;;;-7.96;76.77
54806;BME280;62866;55.776;37.496;2023-02-22T11:39:26;99199.38;;;-7.85;76.33
54806;BME280;62866;55.776;37.496;2023-02-22T11:41:54;99202.16;;;-7.88;76.24
54806;BME280;62866;55.776;37.496;2023-02-22T11:44:23;99210.41;;;-7.96;77.20
54806;BME280;62866;55.776;37.496;2023-02-22T11:46:50;99223.28;;;-8.10;76.65
54806;BME280;62866;55.776;37.496;2023-02-22T11:49:16;99220.06;;;-8.29;75.83
54806;BME280;62866;55.776;37.496;2023-02-22T11:57:35;99231.03;;;-8.40;77.38
54806;BME280;62866;55.776;37.496;2023-02-22T12:00:26;99235.81;;;-8.32;77.21
54806;BME280;62866;55.776;37.496;2023-02-22T12:06:14;99238.88;;;-8.57;77.56
54806;BME280;62866;55.776;37.496;2023-02-22T12:09:05;99233.34;;;-8.67;78.26
54806;BME280;62866;55.776;37.496;2023-02-22T12:12:26;99235.38;;;-8.56;78.22
54806;BME280;62866;55.776;37.496;2023-02-22T12:19:42;99235.22;;;-8.37;78.08
54806;BME280;62866;55.776;37.496;2023-02-22T12:22:26;99243.88;;;-8.23;78.32
54806;BME280;62866;55.776;37.496;2023-02-22T12:25:04;99253.75;;;-8.29;78.61
54806;BME280;62866;55.776;37.496;2023-02-22T12:27:45;99234.69;;;-8.60;78.66
54806;BME280;62866;55.776;37.496;2023-02-22T12:30:22;99257.25;;;-8.62;79.26
54806;BME280;62866;55.776;37.496;2023-02-22T12:32:54;99254.53;;;-8.59;79.11
54806;BME280;62866;55.776;37.496;2023-02-22T12:35:42;99272.19;;;-8.34;79.17
54806;BME280;62866;55.776;37.496;2023-02-22T12:38:39;99278.13;;;-8.32;78.94
54806;BME280;62866;55.776;37.496;2023-02-22T12:43:53;99272.38;;;-8.37;79.58
54806;BME280;62866;55.776;37.496;2023-02-22T12:46:27;99280.25;;;-8.24;80.08
54806;BME280;62866;55.776;37.496;2023-02-22T12:51:53;99288.88;;;-8.08;79.09
54806;BME280;62866;55.776;37.496;2023-02-22T12:57:19;99294.59;;;-8.33;78.78
54806;BME280;62866;55.776;37.496;2023-02-22T12:59:49;99299.91;;;-8.52;79.35
54806;BME280;62866;55.776;37.496;2023-02-22T13:02:37;99309.66;;;-8.39;80.28
54806;BME280;62866;55.776;37.496;2023-02-22T13:05:13;99310.41;;;-8.37;80.28
54806;BME280;62866;55.776;37.496;2023-02-22T13:07:46;99312.06;;;-8.36;80.66
54806;BME280;62866;55.776;37.496;2023-02-22T13:13:23;99313.72;;;-8.20;80.27
54806;BME280;62866;55.776;37.496;2023-02-22T13:24:17;99313.97;;;-8.24;80.29
54806;BME280;62866;55.776;37.496;2023-02-22T13:26:47;99319.16;;;-8.24;79.93
54806;BME280;62866;55.776;37.496;2023-02-22T13:29:20;99327.69;;;-8.22;80.00
54806;BME280;62866;55.776;37.496;2023-02-22T13:32:23;99323.59;;;-8.42;79.68
54806;BME280;62866;55.776;37.496;2023-02-22T13:38:23;99321.47;;;-8.67;80.31
54806;BME280;62866;55.776;37.496;2023-02-22T13:52:00;99346.19;;;-9.29;79.07
54806;BME280;62866;55.776;37.496;2023-02-22T13:57:02;99342.78;;;-9.46;79.60
54806;BME280;62866;55.776;37.496;2023-02-22T13:59:34;99349.88;;;-9.69;80.11
54806;BME280;62866;55.776;37.496;2023-02-22T14:02:02;99352.75;;;-9.75;80.74
54806;BME280;62866;55.776;37.496;2023-02-22T14:09:45;99349.16;;;-10.08;81.39
54806;BME280;62866;55.776;37.496;2023-02-22T14:15:18;99350.38;;;-10.15;82.52
54806;BME280;62866;55.776;37.496;2023-02-22T14:17:56;99347.84;;;-10.17;82.14
54806;BME280;62866;55.776;37.496;2023-02-22T14:20:28;99324.34;;;-10.29;82.13
54806;BME280;62866;55.776;37.496;2023-02-22T14:22:56;99357.50;;;-10.20;81.53
54806;BME280;62866;55.776;37.496;2023-02-22T14:25:40;99360.59;;;-10.31;82.11
54806;BME280;62866;55.776;37.496;2023-02-22T14:31:12;99352.75;;;-10.48;81.91
54806;BME280;62866;55.776;37.496;2023-02-22T14:36:33;99364.53;;;-10.61;82.57
54806;BME280;62866;55.776;37.496;2023-02-22T14:39:21;99369.00;;;-10.65;82.80
54806;BME280;62866;55.776;37.496;2023-02-22T14:42:06;99371.69;;;-10.68;82.58
54806;BME280;62866;55.776;37.496;2023-02-22T14:44:39;99367.25;;;-10.85;82.95
54806;BME280;62866;55.776;37.496;2023-02-22T14:47:08;99368.72;;;-10.79;83.04
54806;BME280;62866;55.776;37.496;2023-02-22T14:49:41;99380.38;;;-10.89;83.45
54806;BME280;62866;55.776;37.496;2023-02-22T14:52:28;99381.28;;;-10.90;84.02
54806;BME280;62866;55.776;37.496;2023-02-22T14:57:41;99382.34;;;-10.96;83.85
54806;BME280;62866;55.776;37.496;2023-02-22T15:00:13;99390.94;;;-10.95;84.31
54806;BME280;62866;55.776;37.496;2023-02-22T15:02:56;99389.09;;;-10.92;84.63
54806;BME280;62866;55.776;37.496;2023-02-22T15:05:24;99384.13;;;-10.96;84.71
54806;BME280;62866;55.776;37.496;2023-02-22T15:08:06;99396.06;;;-10.94;84.92